sensor_id;sensor_type;location;lat;lon;timestamp;P1;durP1;ratioP1;P2;durP2;ratioP2
37199;SDS011;23096;50.892;16.746;2024-02-28T00:01:51;93.30;;;33.90;;
37199;SDS011;23096;50.892;16.746;2024-02-28T00:04:17;90.20;;;35.50;;
37199;SDS011;23096;50.892;16.746;2024-02-28T00:06:43;90.60;;;35.10;;
37199;SDS011;23096;50.892;16.746;2024-02-28T00:09:11;93.00;;;36.30;;
37199;SDS011;23096;50.892;16.746;2024-02-28T00:11:42;103.40;;;37.00;;
37199;SDS011;23096;50.892;16.746;2024-02-28T00:14:10;84.30;;;34.40;;
37199;SDS011;23096;50.892;16.746;2024-02-28T00:16:36;83.90;;;33.50;;
37199;SDS011;23096;50.892;16.746;2024-02-28T00:19:02;100.70;;;36.30;;
37199;SDS011;23096;50.892;16.746;2024-02-28T00:21:27;95.80;;;35.90;;
37199;SDS011;23096;50.892;16.746;2024-02-28T00:23:53;86.80;;;35.00;;
37199;SDS011;23096;50.892;16.746;2024-02-28T00:26:18;106.00;;;40.70;;
37199;SDS011;23096;50.892;16.746;2024-02-28T00:28:44;99.10;;;37.00;;
37199;SDS011;23096;50.892;16.746;2024-02-28T00:31:09;93.70;;;35.90;;
37199;SDS011;23096;50.892;16.746;2024-02-28T00:33:35;106.00;;;37.20;;
37199;SDS011;23096;50.892;16.746;2024-02-28T00:36:00;96.20;;;36.20;;
37199;SDS011;23096;50.892;16.746;2024-02-28T00:38:26;102.80;;;37.70;;
37199;SDS011;23096;50.892;16.746;2024-02-28T00:40:53;97.20;;;37.40;;
37199;SDS011;23096;50.892;16.746;2024-02-28T00:43:18;106.50;;;37.70;;
37199;SDS011;23096;50.892;16.746;2024-02-28T00:45:43;103.30;;;37.00;;
37199;SDS011;23096;50.892;16.746;2024-02-28T00:48:09;100.00;;;39.50;;
37199;SDS011;23096;50.892;16.746;2024-02-28T00:50:35;100.60;;;38.40;;
37199;SDS011;23096;50.892;16.746;2024-02-28T00:53:00;102.00;;;38.80;;
37199;SDS011;23096;50.892;16.746;2024-02-28T00:55:26;104.20;;;38.50;;
37199;SDS011;23096;50.892;16.746;2024-02-28T00:57:52;108.00;;;39.30;;
37199;SDS011;23096;50.892;16.746;2024-02-28T01:00:17;110.10;;;38.80;;
37199;SDS011;23096;50.892;16.746;2024-02-28T01:02:43;109.30;;;41.10;;
37199;SDS011;23096;50.892;16.746;2024-02-28T01:05:08;110.20;;;41.40;;
37199;SDS011;23096;50.892;16.746;2024-02-28T01:07:34;114.10;;;39.10;;
37199;SDS011;23096;50.892;16.746;2024-02-28T01:10:00;109.40;;;39.80;;
37199;SDS011;23096;50.892;16.746;2024-02-28T01:12:25;114.70;;;40.40;;
37199;SDS011;23096;50.892;16.746;2024-02-28T01:14:51;109.00;;;42.10;;
37199;SDS011;23096;50.892;16.746;2024-02-28T01:17:17;109.50;;;38.10;;
37199;SDS011;23096;50.892;16.746;2024-02-28T01:19:42;105.60;;;39.20;;
37199;SDS011;23096;50.892;16.746;2024-02-28T01:22:08;101.50;;;38.40;;
37199;SDS011;23096;50.892;16.746;2024-02-28T01:24:34;109.70;;;39.50;;
37199;SDS011;23096;50.892;16.746;2024-02-28T01:27:00;101.40;;;40.60;;
37199;SDS011;23096;50.892;16.746;2024-02-28T01:29:25;102.30;;;36.40;;
37199;SDS011;23096;50.892;16.746;2024-02-28T01:31:51;101.70;;;38.10;;
37199;SDS011;23096;50.892;16.746;2024-02-28T01:34:16;105.40;;;37.80;;
37199;SDS011;23096;50.892;16.746;2024-02-28T01:36:42;95.30;;;37.20;;
37199;SDS011;23096;50.892;16.746;2024-02-28T01:39:08;110.80;;;41.20;;
37199;SDS011;23096;50.892;16.746;2024-02-28T01:41:34;104.10;;;38.30;;
37199;SDS011;23096;50.892;16.746;2024-02-28T01:43:59;117.40;;;42.00;;
37199;SDS011;23096;50.892;16.746;2024-02-28T01:46:25;98.90;;;37.80;;
37199;SDS011;23096;50.892;16.746;2024-02-28T01:48:52;101.80;;;36.80;;
37199;SDS011;23096;50.892;16.746;2024-02-28T01:51:20;96.00;;;36.30;;
37199;SDS011;23096;50.892;16.746;2024-02-28T01:53:47;100.00;;;37.10;;
37199;SDS011;23096;50.892;16.746;2024-02-28T01:56:15;107.20;;;39.70;;
37199;SDS011;23096;50.892;16.746;2024-02-28T01:58:42;102.80;;;40.40;;
37199;SDS011;23096;50.892;16.746;2024-02-28T02:01:10;103.50;;;37.10;;
37199;SDS011;23096;50.892;16.746;2024-02-28T02:03:40;108.40;;;38.40;;
37199;SDS011;23096;50.892;16.746;2024-02-28T02:06:05;118.20;;;38.90;;
37199;SDS011;23096;50.892;16.746;2024-02-28T02:08:31;109.40;;;38.60;;
37199;SDS011;23096;50.892;16.746;2024-02-28T02:10:58;105.30;;;38.60;;
37199;SDS011;23096;50.892;16.746;2024-02-28T02:13:23;113.00;;;41.00;;
37199;SDS011;23096;50.892;16.746;2024-02-28T02:15:49;108.90;;;38.70;;
37199;SDS011;23096;50.892;16.746;2024-02-28T02:18:14;112.80;;;40.70;;
37199;SDS011;23096;50.892;16.746;2024-02-28T02:20:41;113.50;;;40.60;;
37199;SDS011;23096;50.892;16.746;2024-02-28T02:23:10;122.50;;;39.10;;
37199;SDS011;23096;50.892;16.746;2024-02-28T02:25:46;116.10;;;37.40;;
37199;SDS011;23096;50.892;16.746;2024-02-28T02:28:12;102.30;;;36.20;;
37199;SDS011;23096;50.892;16.746;2024-02-28T02:30:39;104.40;;;36.20;;
37199;SDS011;23096;50.892;16.746;2024-02-28T02:33:06;99.70;;;36.30;;
37199;SDS011;23096;50.892;16.746;2024-02-28T02:35:35;111.80;;;35.90;;
37199;SDS011;23096;50.892;16.746;2024-02-28T02:38:01;113.60;;;41.60;;
37199;SDS011;23096;50.892;16.746;2024-02-28T02:40:27;99.60;;;37.80;;
37199;SDS011;23096;50.892;16.746;2024-02-28T02:42:52;106.70;;;37.00;;
37199;SDS011;23096;50.892;16.746;2024-02-28T02:45:18;107.40;;;37.10;;
37199;SDS011;23096;50.892;16.746;2024-02-28T02:47:43;109.60;;;38.10;;
37199;SDS011;23096;50.892;16.746;2024-02-28T02:50:09;96.60;;;35.20;;
37199;SDS011;23096;50.892;16.746;2024-02-28T02:52:35;98.40;;;35.70;;
37199;SDS011;23096;50.892;16.746;2024-02-28T02:55:01;99.70;;;35.40;;
37199;SDS011;23096;50.892;16.746;2024-02-28T02:57:26;96.90;;;37.10;;
37199;SDS011;23096;50.892;16.746;2024-02-28T02:59:52;91.10;;;33.60;;
37199;SDS011;23096;50.892;16.746;2024-02-28T03:02:18;88.60;;;33.20;;
37199;SDS011;23096;50.892;16.746;2024-02-28T03:04:43;87.10;;;34.50;;
37199;SDS011;23096;50.892;16.746;2024-02-28T03:07:08;84.80;;;32.50;;
37199;SDS011;23096;50.892;16.746;2024-02-28T03:09:34;90.70;;;31.80;;
37199;SDS011;23096;50.892;16.746;2024-02-28T03:11:59;87.20;;;32.40;;
37199;SDS011;23096;50.892;16.746;2024-02-28T03:14:25;68.60;;;28.00;;
37199;SDS011;23096;50.892;16.746;2024-02-28T03:16:52;80.90;;;29.70;;
37199;SDS011;23096;50.892;16.746;2024-02-28T03:19:18;77.30;;;31.10;;
37199;SDS011;23096;50.892;16.746;2024-02-28T03:21:45;71.60;;;29.40;;
37199;SDS011;23096;50.892;16.746;2024-02-28T03:24:10;74.20;;;30.10;;
37199;SDS011;23096;50.892;16.746;2024-02-28T03:26:36;76.40;;;29.40;;
37199;SDS011;23096;50.892;16.746;2024-02-28T03:29:01;67.60;;;26.60;;
37199;SDS011;23096;50.892;16.746;2024-02-28T03:31:27;65.30;;;28.10;;
37199;SDS011;23096;50.892;16.746;2024-02-28T03:33:53;72.90;;;28.60;;
37199;SDS011;23096;50.892;16.746;2024-02-28T03:36:18;76.50;;;31.90;;
37199;SDS011;23096;50.892;16.746;2024-02-28T03:38:44;72.50;;;27.40;;
37199;SDS011;23096;50.892;16.746;2024-02-28T03:41:10;69.90;;;29.20;;
37199;SDS011;23096;50.892;16.746;2024-02-28T03:43:35;66.90;;;27.10;;
37199;SDS011;23096;50.892;16.746;2024-02-28T03:46:01;59.50;;;26.50;;
37199;SDS011;23096;50.892;16.746;2024-02-28T03:48:27;77.30;;;28.90;;
37199;SDS011;23096;50.892;16.746;2024-02-28T03:50:52;70.60;;;27.50;;
37199;SDS011;23096;50.892;16.746;2024-02-28T03:53:18;73.40;;;31.00;;
37199;SDS011;23096;50.892;16.746;2024-02-28T03:55:44;69.70;;;28.60;;
37199;SDS011;23096;50.892;16.746;2024-02-28T03:58:10;66.90;;;26.70;;
37199;SDS011;23096;50.892;16.746;2024-02-28T04:00:36;71.70;;;28.80;;
37199;SDS011;23096;50.892;16.746;2024-02-28T04:03:01;74.80;;;28.40;;
37199;SDS011;23096;50.892;16.746;2024-02-28T04:05:28;68.50;;;26.00;;
37199;SDS011;23096;50.892;16.746;2024-02-28T04:07:54;63.90;;;27.00;;
37199;SDS011;23096;50.892;16.746;2024-02-28T04:10:20;73.60;;;27.60;;
37199;SDS011;23096;50.892;16.746;2024-02-28T04:12:46;72.40;;;27.60;;
37199;SDS011;23096;50.892;16.746;2024-02-28T04:15:12;73.40;;;28.40;;
37199;SDS011;23096;50.892;16.746;2024-02-28T04:17:40;70.90;;;29.00;;
37199;SDS011;23096;50.892;16.746;2024-02-28T04:20:10;74.80;;;29.50;;
37199;SDS011;23096;50.892;16.746;2024-02-28T04:22:38;69.80;;;27.40;;
37199;SDS011;23096;50.892;16.746;2024-02-28T04:25:05;71.00;;;29.90;;
37199;SDS011;23096;50.892;16.746;2024-02-28T04:27:33;75.80;;;27.90;;
37199;SDS011;23096;50.892;16.746;2024-02-28T04:29:59;75.80;;;28.50;;
37199;SDS011;23096;50.892;16.746;2024-02-28T04:32:24;77.20;;;30.90;;
37199;SDS011;23096;50.892;16.746;2024-02-28T04:34:50;74.80;;;30.70;;
37199;SDS011;23096;50.892;16.746;2024-02-28T04:37:15;78.10;;;28.70;;
37199;SDS011;23096;50.892;16.746;2024-02-28T04:39:41;74.90;;;31.30;;
37199;SDS011;23096;50.892;16.746;2024-02-28T04:42:06;78.30;;;30.80;;
37199;SDS011;23096;50.892;16.746;2024-02-28T04:44:32;76.30;;;30.70;;
37199;SDS011;23096;50.892;16.746;2024-02-28T04:46:58;77.50;;;31.80;;
37199;SDS011;23096;50.892;16.746;2024-02-28T04:49:24;75.00;;;28.50;;
37199;SDS011;23096;50.892;16.746;2024-02-28T04:51:50;75.70;;;28.80;;
37199;SDS011;23096;50.892;16.746;2024-02-28T04:54:16;77.40;;;27.90;;
37199;SDS011;23096;50.892;16.746;2024-02-28T04:56:42;80.10;;;31.70;;
37199;SDS011;23096;50.892;16.746;2024-02-28T04:59:11;74.00;;;30.40;;
37199;SDS011;23096;50.892;16.746;2024-02-28T05:01:38;79.90;;;32.20;;
37199;SDS011;23096;50.892;16.746;2024-02-28T05:04:08;71.70;;;30.70;;
37199;SDS011;23096;50.892;16.746;2024-02-28T05:06:34;88.80;;;31.00;;
37199;SDS011;23096;50.892;16.746;2024-02-28T05:08:59;71.30;;;31.10;;
37199;SDS011;23096;50.892;16.746;2024-02-28T05:11:25;69.90;;;32.10;;
37199;SDS011;23096;50.892;16.746;2024-02-28T05:13:51;69.70;;;29.30;;
37199;SDS011;23096;50.892;16.746;2024-02-28T05:16:17;80.10;;;30.90;;
37199;SDS011;23096;50.892;16.746;2024-02-28T05:18:45;72.10;;;29.00;;
37199;SDS011;23096;50.892;16.746;2024-02-28T05:21:11;74.10;;;31.40;;
37199;SDS011;23096;50.892;16.746;2024-02-28T05:23:37;73.70;;;29.00;;
37199;SDS011;23096;50.892;16.746;2024-02-28T05:26:03;72.70;;;29.10;;
37199;SDS011;23096;50.892;16.746;2024-02-28T05:28:32;70.40;;;28.70;;
37199;SDS011;23096;50.892;16.746;2024-02-28T05:31:02;61.80;;;26.90;;
37199;SDS011;23096;50.892;16.746;2024-02-28T05:33:46;67.70;;;28.70;;
37199;SDS011;23096;50.892;16.746;2024-02-28T05:36:11;67.10;;;28.50;;
37199;SDS011;23096;50.892;16.746;2024-02-28T05:38:37;61.50;;;27.00;;
37199;SDS011;23096;50.892;16.746;2024-02-28T05:41:02;68.60;;;27.20;;
37199;SDS011;23096;50.892;16.746;2024-02-28T05:43:28;61.80;;;24.70;;
37199;SDS011;23096;50.892;16.746;2024-02-28T05:45:54;56.60;;;25.40;;
37199;SDS011;23096;50.892;16.746;2024-02-28T05:48:19;68.40;;;27.00;;
37199;SDS011;23096;50.892;16.746;2024-02-28T05:50:45;61.70;;;26.70;;
37199;SDS011;23096;50.892;16.746;2024-02-28T05:53:11;63.30;;;26.10;;
37199;SDS011;23096;50.892;16.746;2024-02-28T05:55:37;48.10;;;22.30;;
37199;SDS011;23096;50.892;16.746;2024-02-28T05:58:03;50.10;;;23.20;;
37199;SDS011;23096;50.892;16.746;2024-02-28T06:00:28;52.80;;;23.60;;
37199;SDS011;23096;50.892;16.746;2024-02-28T06:02:54;55.60;;;26.10;;
37199;SDS011;23096;50.892;16.746;2024-02-28T06:05:20;51.90;;;24.30;;
37199;SDS011;23096;50.892;16.746;2024-02-28T06:07:45;51.10;;;24.20;;
37199;SDS011;23096;50.892;16.746;2024-02-28T06:10:11;47.80;;;22.90;;
37199;SDS011;23096;50.892;16.746;2024-02-28T06:12:37;45.80;;;22.20;;
37199;SDS011;23096;50.892;16.746;2024-02-28T06:15:03;35.80;;;20.30;;
37199;SDS011;23096;50.892;16.746;2024-02-28T06:17:29;43.20;;;22.20;;
37199;SDS011;23096;50.892;16.746;2024-02-28T06:19:55;43.20;;;21.40;;
37199;SDS011;23096;50.892;16.746;2024-02-28T06:22:20;41.20;;;21.00;;
37199;SDS011;23096;50.892;16.746;2024-02-28T06:24:46;37.50;;;18.40;;
37199;SDS011;23096;50.892;16.746;2024-02-28T06:27:12;38.10;;;18.80;;
37199;SDS011;23096;50.892;16.746;2024-02-28T06:29:38;31.00;;;18.50;;
37199;SDS011;23096;50.892;16.746;2024-02-28T06:32:07;37.50;;;20.20;;
37199;SDS011;23096;50.892;16.746;2024-02-28T06:34:33;34.30;;;18.60;;
37199;SDS011;23096;50.892;16.746;2024-02-28T06:36:59;32.70;;;19.60;;
37199;SDS011;23096;50.892;16.746;2024-02-28T06:39:24;29.00;;;17.60;;
37199;SDS011;23096;50.892;16.746;2024-02-28T06:41:50;29.90;;;17.90;;
37199;SDS011;23096;50.892;16.746;2024-02-28T06:44:19;29.00;;;16.40;;
37199;SDS011;23096;50.892;16.746;2024-02-28T06:46:45;27.00;;;15.50;;
37199;SDS011;23096;50.892;16.746;2024-02-28T06:49:10;27.10;;;15.60;;
37199;SDS011;23096;50.892;16.746;2024-02-28T06:51:36;22.70;;;13.90;;
37199;SDS011;23096;50.892;16.746;2024-02-28T06:54:02;23.40;;;14.00;;
37199;SDS011;23096;50.892;16.746;2024-02-28T06:56:29;26.00;;;14.10;;
37199;SDS011;23096;50.892;16.746;2024-02-28T06:58:56;34.70;;;18.30;;
37199;SDS011;23096;50.892;16.746;2024-02-28T07:01:22;25.90;;;14.80;;
37199;SDS011;23096;50.892;16.746;2024-02-28T07:03:47;30.70;;;15.10;;
37199;SDS011;23096;50.892;16.746;2024-02-28T07:06:13;24.50;;;12.70;;
37199;SDS011;23096;50.892;16.746;2024-02-28T07:08:39;20.60;;;11.30;;
37199;SDS011;23096;50.892;16.746;2024-02-28T07:11:04;24.10;;;13.50;;
37199;SDS011;23096;50.892;16.746;2024-02-28T07:13:30;22.60;;;12.50;;
37199;SDS011;23096;50.892;16.746;2024-02-28T07:15:55;17.80;;;11.00;;
37199;SDS011;23096;50.892;16.746;2024-02-28T07:18:23;21.60;;;11.70;;
37199;SDS011;23096;50.892;16.746;2024-02-28T07:20:51;16.70;;;10.80;;
37199;SDS011;23096;50.892;16.746;2024-02-28T07:23:17;20.40;;;11.00;;
37199;SDS011;23096;50.892;16.746;2024-02-28T07:25:43;15.50;;;11.00;;
37199;SDS011;23096;50.892;16.746;2024-02-28T07:28:08;16.20;;;9.80;;
37199;SDS011;23096;50.892;16.746;2024-02-28T07:30:34;16.50;;;9.30;;
37199;SDS011;23096;50.892;16.746;2024-02-28T07:33:01;15.90;;;9.10;;
37199;SDS011;23096;50.892;16.746;2024-02-28T07:35:26;13.10;;;8.60;;
37199;SDS011;23096;50.892;16.746;2024-02-28T07:37:52;14.40;;;8.90;;
37199;SDS011;23096;50.892;16.746;2024-02-28T07:40:17;12.50;;;8.00;;
37199;SDS011;23096;50.892;16.746;2024-02-28T07:42:43;19.10;;;10.50;;
37199;SDS011;23096;50.892;16.746;2024-02-28T07:45:09;15.30;;;9.40;;
37199;SDS011;23096;50.892;16.746;2024-02-28T07:47:35;16.20;;;10.40;;
37199;SDS011;23096;50.892;16.746;2024-02-28T07:50:00;14.70;;;9.20;;
37199;SDS011;23096;50.892;16.746;2024-02-28T07:52:26;18.70;;;9.50;;
37199;SDS011;23096;50.892;16.746;2024-02-28T07:54:51;20.50;;;9.90;;
37199;SDS011;23096;50.892;16.746;2024-02-28T07:57:17;21.40;;;9.40;;
37199;SDS011;23096;50.892;16.746;2024-02-28T07:59:42;22.50;;;11.00;;
37199;SDS011;23096;50.892;16.746;2024-02-28T08:02:08;18.30;;;10.50;;
37199;SDS011;23096;50.892;16.746;2024-02-28T08:04:36;23.00;;;11.70;;
37199;SDS011;23096;50.892;16.746;2024-02-28T08:07:02;22.10;;;11.10;;
37199;SDS011;23096;50.892;16.746;2024-02-28T08:09:28;19.10;;;9.50;;
37199;SDS011;23096;50.892;16.746;2024-02-28T08:11:54;16.20;;;8.50;;
37199;SDS011;23096;50.892;16.746;2024-02-28T08:14:20;21.80;;;10.40;;
37199;SDS011;23096;50.892;16.746;2024-02-28T08:16:46;22.70;;;9.60;;
37199;SDS011;23096;50.892;16.746;2024-02-28T08:19:11;16.90;;;8.00;;
37199;SDS011;23096;50.892;16.746;2024-02-28T08:21:37;18.70;;;8.50;;
37199;SDS011;23096;50.892;16.746;2024-02-28T08:24:03;14.60;;;8.90;;
37199;SDS011;23096;50.892;16.746;2024-02-28T08:26:30;18.20;;;9.10;;
37199;SDS011;23096;50.892;16.746;2024-02-28T08:28:56;23.90;;;11.90;;
37199;SDS011;23096;50.892;16.746;2024-02-28T08:31:22;21.10;;;11.00;;
37199;SDS011;23096;50.892;16.746;2024-02-28T08:33:48;22.80;;;13.00;;
37199;SDS011;23096;50.892;16.746;2024-02-28T08:36:14;14.20;;;8.80;;
37199;SDS011;23096;50.892;16.746;2024-02-28T08:38:40;17.90;;;10.10;;
37199;SDS011;23096;50.892;16.746;2024-02-28T08:41:06;16.50;;;9.20;;
37199;SDS011;23096;50.892;16.746;2024-02-28T08:43:37;16.30;;;9.80;;
37199;SDS011;23096;50.892;16.746;2024-02-28T08:46:03;18.70;;;10.10;;
37199;SDS011;23096;50.892;16.746;2024-02-28T08:48:29;16.30;;;10.40;;
37199;SDS011;23096;50.892;16.746;2024-02-28T08:50:54;17.90;;;10.10;;
37199;SDS011;23096;50.892;16.746;2024-02-28T08:53:20;21.70;;;12.30;;
37199;SDS011;23096;50.892;16.746;2024-02-28T08:55:45;22.20;;;13.70;;
37199;SDS011;23096;50.892;16.746;2024-02-28T08:58:11;47.70;;;32.10;;
37199;SDS011;23096;50.892;16.746;2024-02-28T09:00:37;34.90;;;24.70;;
37199;SDS011;23096;50.892;16.746;2024-02-28T09:03:03;22.90;;;15.70;;
37199;SDS011;23096;50.892;16.746;2024-02-28T09:05:30;23.50;;;17.90;;
37199;SDS011;23096;50.892;16.746;2024-02-28T09:07:56;21.90;;;15.20;;
37199;SDS011;23096;50.892;16.746;2024-02-28T09:10:22;19.90;;;12.30;;
37199;SDS011;23096;50.892;16.746;2024-02-28T09:12:51;17.90;;;10.70;;
37199;SDS011;23096;50.892;16.746;2024-02-28T09:15:17;19.70;;;12.10;;
37199;SDS011;23096;50.892;16.746;2024-02-28T09:17:43;19.60;;;12.70;;
37199;SDS011;23096;50.892;16.746;2024-02-28T09:20:09;19.20;;;12.20;;
37199;SDS011;23096;50.892;16.746;2024-02-28T09:22:36;19.90;;;14.20;;
37199;SDS011;23096;50.892;16.746;2024-02-28T09:25:01;20.40;;;13.40;;
37199;SDS011;23096;50.892;16.746;2024-02-28T09:27:29;19.30;;;11.80;;
37199;SDS011;23096;50.892;16.746;2024-02-28T09:29:55;22.40;;;13.60;;
37199;SDS011;23096;50.892;16.746;2024-02-28T09:32:21;19.30;;;11.80;;
37199;SDS011;23096;50.892;16.746;2024-02-28T09:34:46;18.90;;;11.60;;
37199;SDS011;23096;50.892;16.746;2024-02-28T09:37:13;19.60;;;11.30;;
37199;SDS011;23096;50.892;16.746;2024-02-28T09:39:39;19.90;;;12.10;;
37199;SDS011;23096;50.892;16.746;2024-02-28T09:42:06;17.80;;;10.70;;
37199;SDS011;23096;50.892;16.746;2024-02-28T09:44:34;20.10;;;11.20;;
37199;SDS011;23096;50.892;16.746;2024-02-28T09:47:00;16.60;;;10.20;;
37199;SDS011;23096;50.892;16.746;2024-02-28T09:49:26;21.80;;;10.30;;
37199;SDS011;23096;50.892;16.746;2024-02-28T09:51:52;18.50;;;10.70;;
37199;SDS011;23096;50.892;16.746;2024-02-28T09:54:18;21.70;;;11.30;;
37199;SDS011;23096;50.892;16.746;2024-02-28T09:56:44;18.40;;;10.50;;
37199;SDS011;23096;50.892;16.746;2024-02-28T09:59:10;20.60;;;11.10;;
37199;SDS011;23096;50.892;16.746;2024-02-28T10:01:38;19.80;;;12.20;;
37199;SDS011;23096;50.892;16.746;2024-02-28T10:04:08;21.20;;;11.10;;
37199;SDS011;23096;50.892;16.746;2024-02-28T10:06:36;21.50;;;11.70;;
37199;SDS011;23096;50.892;16.746;2024-02-28T10:09:01;20.40;;;12.20;;
37199;SDS011;23096;50.892;16.746;2024-02-28T10:11:28;19.90;;;11.80;;
37199;SDS011;23096;50.892;16.746;2024-02-28T10:13:53;24.70;;;14.20;;
37199;SDS011;23096;50.892;16.746;2024-02-28T10:16:20;21.80;;;12.60;;
37199;SDS011;23096;50.892;16.746;2024-02-28T10:18:46;25.60;;;13.00;;
37199;SDS011;23096;50.892;16.746;2024-02-28T10:21:12;28.50;;;14.80;;
37199;SDS011;23096;50.892;16.746;2024-02-28T10:23:40;29.90;;;17.10;;
37199;SDS011;23096;50.892;16.746;2024-02-28T10:26:08;28.80;;;16.60;;
37199;SDS011;23096;50.892;16.746;2024-02-28T10:28:38;31.00;;;16.90;;
37199;SDS011;23096;50.892;16.746;2024-02-28T10:31:08;23.40;;;13.40;;
37199;SDS011;23096;50.892;16.746;2024-02-28T10:33:33;24.30;;;13.80;;
37199;SDS011;23096;50.892;16.746;2024-02-28T10:36:02;22.10;;;12.50;;
37199;SDS011;23096;50.892;16.746;2024-02-28T10:38:30;25.90;;;14.30;;
37199;SDS011;23096;50.892;16.746;2024-02-28T10:41:02;27.90;;;17.00;;
37199;SDS011;23096;50.892;16.746;2024-02-28T10:43:28;30.80;;;15.60;;
37199;SDS011;23096;50.892;16.746;2024-02-28T10:45:56;22.40;;;13.30;;
37199;SDS011;23096;50.892;16.746;2024-02-28T10:48:23;19.30;;;12.00;;
37199;SDS011;23096;50.892;16.746;2024-02-28T10:50:50;18.70;;;12.30;;
37199;SDS011;23096;50.892;16.746;2024-02-28T10:53:16;18.40;;;12.70;;
37199;SDS011;23096;50.892;16.746;2024-02-28T10:55:46;21.30;;;12.50;;
37199;SDS011;23096;50.892;16.746;2024-02-28T10:58:14;18.10;;;11.80;;
37199;SDS011;23096;50.892;16.746;2024-02-28T11:00:42;17.30;;;11.80;;
37199;SDS011;23096;50.892;16.746;2024-02-28T11:03:12;18.60;;;11.60;;
37199;SDS011;23096;50.892;16.746;2024-02-28T11:05:41;15.80;;;10.80;;
37199;SDS011;23096;50.892;16.746;2024-02-28T11:08:11;15.10;;;10.10;;
37199;SDS011;23096;50.892;16.746;2024-02-28T11:10:46;13.40;;;10.30;;
37199;SDS011;23096;50.892;16.746;2024-02-28T11:13:25;13.50;;;10.20;;
37199;SDS011;23096;50.892;16.746;2024-02-28T11:15:52;13.80;;;9.60;;
37199;SDS011;23096;50.892;16.746;2024-02-28T11:18:18;14.80;;;9.80;;
37199;SDS011;23096;50.892;16.746;2024-02-28T11:20:44;13.80;;;9.60;;
37199;SDS011;23096;50.892;16.746;2024-02-28T11:23:13;12.40;;;9.30;;
37199;SDS011;23096;50.892;16.746;2024-02-28T11:25:40;14.00;;;9.20;;
37199;SDS011;23096;50.892;16.746;2024-02-28T11:28:05;14.60;;;9.90;;
37199;SDS011;23096;50.892;16.746;2024-02-28T11:30:32;14.10;;;9.50;;
37199;SDS011;23096;50.892;16.746;2024-02-28T11:32:58;15.70;;;10.70;;
37199;SDS011;23096;50.892;16.746;2024-02-28T11:35:26;15.40;;;11.20;;
37199;SDS011;23096;50.892;16.746;2024-02-28T11:37:56;13.20;;;9.90;;
37199;SDS011;23096;50.892;16.746;2024-02-28T11:40:24;15.60;;;11.30;;
37199;SDS011;23096;50.892;16.746;2024-02-28T11:42:54;15.40;;;10.90;;
37199;SDS011;23096;50.892;16.746;2024-02-28T11:45:20;17.60;;;12.80;;
37199;SDS011;23096;50.892;16.746;2024-02-28T11:47:46;17.50;;;11.90;;
37199;SDS011;23096;50.892;16.746;2024-02-28T11:50:12;19.30;;;12.70;;
37199;SDS011;23096;50.892;16.746;2024-02-28T11:52:40;16.80;;;11.60;;
37199;SDS011;23096;50.892;16.746;2024-02-28T11:55:06;20.10;;;13.70;;
37199;SDS011;23096;50.892;16.746;2024-02-28T11:57:32;20.60;;;14.30;;
37199;SDS011;23096;50.892;16.746;2024-02-28T12:00:08;20.90;;;14.10;;
37199;SDS011;23096;50.892;16.746;2024-02-28T12:02:43;21.30;;;15.10;;
37199;SDS011;23096;50.892;16.746;2024-02-28T12:05:09;25.20;;;14.30;;
37199;SDS011;23096;50.892;16.746;2024-02-28T12:07:34;25.80;;;15.60;;
37199;SDS011;23096;50.892;16.746;2024-02-28T12:10:00;22.50;;;15.70;;
37199;SDS011;23096;50.892;16.746;2024-02-28T12:12:28;32.90;;;18.90;;
37199;SDS011;23096;50.892;16.746;2024-02-28T12:14:58;21.70;;;14.70;;
37199;SDS011;23096;50.892;16.746;2024-02-28T12:17:25;25.10;;;15.40;;
37199;SDS011;23096;50.892;16.746;2024-02-28T12:19:52;27.70;;;17.60;;
37199;SDS011;23096;50.892;16.746;2024-02-28T12:22:18;21.60;;;14.80;;
37199;SDS011;23096;50.892;16.746;2024-02-28T12:24:43;21.00;;;14.90;;
37199;SDS011;23096;50.892;16.746;2024-02-28T12:27:10;21.30;;;15.10;;
37199;SDS011;23096;50.892;16.746;2024-02-28T12:29:35;25.30;;;16.80;;
37199;SDS011;23096;50.892;16.746;2024-02-28T12:32:01;24.40;;;16.10;;
37199;SDS011;23096;50.892;16.746;2024-02-28T12:34:27;23.40;;;17.10;;
37199;SDS011;23096;50.892;16.746;2024-02-28T12:36:53;25.70;;;17.90;;
37199;SDS011;23096;50.892;16.746;2024-02-28T12:39:19;27.00;;;17.30;;
37199;SDS011;23096;50.892;16.746;2024-02-28T12:41:44;28.90;;;18.80;;
37199;SDS011;23096;50.892;16.746;2024-02-28T12:44:10;30.00;;;21.20;;
37199;SDS011;23096;50.892;16.746;2024-02-28T12:46:36;35.20;;;21.80;;
37199;SDS011;23096;50.892;16.746;2024-02-28T12:49:02;32.70;;;21.50;;
37199;SDS011;23096;50.892;16.746;2024-02-28T12:51:44;33.90;;;23.20;;
37199;SDS011;23096;50.892;16.746;2024-02-28T12:56:37;33.70;;;21.20;;
37199;SDS011;23096;50.892;16.746;2024-02-28T12:59:04;39.90;;;25.20;;
37199;SDS011;23096;50.892;16.746;2024-02-28T13:01:32;37.50;;;23.50;;
37199;SDS011;23096;50.892;16.746;2024-02-28T13:03:57;34.50;;;20.90;;
37199;SDS011;23096;50.892;16.746;2024-02-28T13:10:06;39.80;;;23.20;;
37199;SDS011;23096;50.892;16.746;2024-02-28T13:12:32;44.00;;;24.50;;
37199;SDS011;23096;50.892;16.746;2024-02-28T13:14:58;40.70;;;23.40;;
37199;SDS011;23096;50.892;16.746;2024-02-28T13:17:25;43.40;;;24.20;;
37199;SDS011;23096;50.892;16.746;2024-02-28T13:19:51;34.00;;;22.20;;
37199;SDS011;23096;50.892;16.746;2024-02-28T13:22:16;32.00;;;20.10;;
37199;SDS011;23096;50.892;16.746;2024-02-28T13:24:42;41.10;;;23.60;;
37199;SDS011;23096;50.892;16.746;2024-02-28T13:27:07;35.90;;;22.10;;
37199;SDS011;23096;50.892;16.746;2024-02-28T13:29:34;32.40;;;19.90;;
37199;SDS011;23096;50.892;16.746;2024-02-28T13:32:00;37.80;;;22.90;;
37199;SDS011;23096;50.892;16.746;2024-02-28T13:34:26;34.20;;;22.20;;
37199;SDS011;23096;50.892;16.746;2024-02-28T13:36:52;33.10;;;19.60;;
37199;SDS011;23096;50.892;16.746;2024-02-28T13:39:18;41.20;;;26.60;;
37199;SDS011;23096;50.892;16.746;2024-02-28T13:41:43;41.30;;;22.10;;
37199;SDS011;23096;50.892;16.746;2024-02-28T13:44:09;36.00;;;22.70;;
37199;SDS011;23096;50.892;16.746;2024-02-28T13:46:35;40.30;;;22.50;;
37199;SDS011;23096;50.892;16.746;2024-02-28T13:49:01;50.60;;;30.00;;
37199;SDS011;23096;50.892;16.746;2024-02-28T13:51:26;48.20;;;26.50;;
37199;SDS011;23096;50.892;16.746;2024-02-28T13:53:53;39.40;;;22.80;;
37199;SDS011;23096;50.892;16.746;2024-02-28T13:56:19;36.70;;;21.20;;
37199;SDS011;23096;50.892;16.746;2024-02-28T13:58:45;41.70;;;23.50;;
37199;SDS011;23096;50.892;16.746;2024-02-28T14:01:12;45.80;;;24.30;;
37199;SDS011;23096;50.892;16.746;2024-02-28T14:03:37;32.30;;;20.20;;
37199;SDS011;23096;50.892;16.746;2024-02-28T14:06:03;37.80;;;23.90;;
37199;SDS011;23096;50.892;16.746;2024-02-28T14:08:29;29.80;;;19.10;;
37199;SDS011;23096;50.892;16.746;2024-02-28T14:10:55;29.70;;;18.10;;